Time;durP1;ratioP1;P1;durP2;ratioP2;P2;SDS_P1;SDS_P2;PMS_P1;PMS_P2;Temp;Humidity;BMP_temperature;BMP_pressure;BME280_temperature;BME280_humidity;BME280_pressure;Samples;Min_cycle;Max_cycle;Signal;HPM_P1;HPM_P2
2023/01/06 05:30:45;;;;;;;;;0.00;0.00;;;;;11.98;79.76;101703.25;5016503;28;46226;-73
2023/01/06 05:33:10;;;;;;;;;0.00;0.00;;;;;12.02;79.55;101707.59;5010581;28;45288;-73
2023/01/06 05:35:36;;;;;;;;;0.00;0.00;;;;;11.83;79.46;101674.25;5016668;28;45316;-73
2023/01/06 05:38:01;;;;;;;;;0.00;0.00;;;;;12.10;79.45;101713.56;5017101;28;45458;-74
2023/01/06 05:40:27;;;;;;;;;0.00;0.00;;;;;12.05;79.09;101731.66;5017405;28;45422;-75
2023/01/06 05:42:54;;;;;;;;;0.00;0.00;;;;;11.97;79.58;101720.31;4998716;28;45364;-74
2023/01/06 05:45:20;;;;;;;;;0.00;0.00;;;;;12.07;79.47;101725.31;5017464;28;45421;-75
2023/01/06 05:47:46;;;;;;;;;0.00;0.00;;;;;12.03;79.49;101715.59;5017005;28;45542;-75
2023/01/06 05:50:11;;;;;;;;;1.00;0.00;;;;;11.92;79.80;101725.84;5017120;28;45984;-74
2023/01/06 05:52:36;;;;;;;;;0.00;0.00;;;;;11.99;79.49;101723.84;5017082;28;45415;-74
2023/01/06 05:55:02;;;;;;;;;0.75;0.75;;;;;12.01;79.58;101725.50;5017501;28;45288;-74
2023/01/06 05:57:27;;;;;;;;;0.00;0.00;;;;;12.11;78.91;101732.31;5016721;28;45321;-75
2023/01/06 05:59:53;;;;;;;;;0.00;0.00;;;;;12.15;79.00;101727.72;5017055;28;46021;-75
2023/01/06 06:02:18;;;;;;;;;0.00;0.00;;;;;12.07;78.98;101711.88;5016848;28;45393;-73
2023/01/06 06:04:45;;;;;;;;;0.00;0.00;;;;;12.23;78.27;101728.31;5017384;28;45704;-74
2023/01/06 06:07:10;;;;;;;;;0.00;0.00;;;;;12.21;77.84;101719.41;5016744;28;45381;-76
2023/01/06 06:09:35;;;;;;;;;0.50;0.00;;;;;12.33;77.62;101724.34;5019532;28;45971;-76
2023/01/06 06:12:01;;;;;;;;;0.00;0.00;;;;;12.28;77.43;101715.56;5016646;28;45452;-74
2023/01/06 06:14:26;;;;;;;;;1.50;0.00;;;;;12.27;77.78;101724.56;5015161;28;45416;-76
2023/01/06 06:16:52;;;;;;;;;0.00;0.00;;;;;12.29;77.59;101720.00;5016639;28;45506;-77
2023/01/06 06:19:18;;;;;;;;;0.00;0.00;;;;;12.40;77.07;101733.06;5017350;28;45383;-77
2023/01/06 06:21:43;;;;;;;;;0.00;0.00;;;;;12.37;77.02;101728.66;5014821;28;45335;-76
2023/01/06 06:24:09;;;;;;;;;1.00;0.00;;;;;12.34;76.92;101723.38;4999106;28;45341;-73
2023/01/06 06:26:34;;;;;;;;;0.00;0.00;;;;;12.26;77.28;101711.16;5016564;28;45566;-73
2023/01/06 06:29:00;;;;;;;;;0.00;0.00;;;;;12.38;77.41;101735.81;4998945;28;48574;-74
2023/01/06 06:31:27;;;;;;;;;0.00;0.00;;;;;12.38;77.40;101726.84;4999605;28;45540;-72
2023/01/06 06:33:55;;;;;;;;;0.00;0.00;;;;;12.32;77.24;101719.91;5018606;28;45594;-73
2023/01/06 06:36:21;;;;;;;;;0.00;0.00;;;;;12.31;77.10;101718.16;5017088;28;45210;-74
2023/01/06 06:38:48;;;;;;;;;0.00;0.00;;;;;12.35;77.26;101732.34;5016344;28;46193;-72
2023/01/06 06:41:14;;;;;;;;;0.00;0.00;;;;;12.41;76.95;101741.06;5014887;28;45837;-74
2023/01/06 06:43:40;;;;;;;;;3.00;1.00;;;;;12.36;77.21;101747.53;5016107;28;45376;-75
2023/01/06 06:46:06;;;;;;;;;0.75;0.75;;;;;12.38;77.50;101745.69;5015930;28;45423;-75
2023/01/06 06:48:32;;;;;;;;;0.75;0.75;;;;;12.33;77.20;101742.28;5016093;28;45502;-76
2023/01/06 06:51:06;;;;;;;;;1.50;1.00;;;;;12.35;77.49;101745.78;5016207;28;45239;-76
2023/01/06 06:53:32;;;;;;;;;0.50;0.50;;;;;12.31;77.67;101744.16;5016172;28;45555;-76
2023/01/06 06:55:58;;;;;;;;;1.00;1.00;;;;;12.33;78.01;101753.94;5015606;28;45337;-75
2023/01/06 06:58:24;;;;;;;;;1.00;0.00;;;;;12.27;78.47;101753.25;5015807;28;45556;-76
2023/01/06 07:00:49;;;;;;;;;0.00;0.00;;;;;12.27;78.16;101743.38;5014403;28;45325;-76
2023/01/06 07:03:15;;;;;;;;;0.00;0.00;;;;;12.29;78.50;101741.53;5016046;28;45262;-75
2023/01/06 07:05:43;;;;;;;;;1.00;1.00;;;;;12.32;77.85;101736.03;4997712;28;45554;-76
2023/01/06 07:08:09;;;;;;;;;0.25;0.25;;;;;12.38;77.88;101749.25;5015988;28;46043;-76
2023/01/06 07:10:34;;;;;;;;;0.50;0.50;;;;;12.34;77.84;101731.44;4997761;28;46047;-75
2023/01/06 07:12:59;;;;;;;;;0.00;0.00;;;;;12.33;78.06;101758.44;5015718;28;45498;-76
2023/01/06 07:15:25;;;;;;;;;1.00;1.00;;;;;12.28;78.24;101747.81;5015849;28;45511;-74
2023/01/06 07:17:50;;;;;;;;;0.00;0.00;;;;;12.26;78.05;101743.44;5015420;28;45323;-74
2023/01/06 07:20:15;;;;;;;;;0.50;0.50;;;;;12.30;78.54;101755.84;5015405;28;45334;-73
2023/01/06 07:22:41;;;;;;;;;0.25;0.25;;;;;12.32;78.07;101762.94;5015846;28;45718;-74
2023/01/06 07:25:08;;;;;;;;;0.00;0.00;;;;;12.40;77.99;101766.22;5015341;28;45476;-76
2023/01/06 07:27:34;;;;;;;;;0.50;0.50;;;;;12.33;77.93;101762.00;5015445;28;46392;-73
2023/01/06 07:30:00;;;;;;;;;0.00;0.00;;;;;12.40;78.14;101766.22;5015183;28;45376;-73
2023/01/06 07:32:25;;;;;;;;;1.00;1.00;;;;;12.45;77.95;101764.22;5015489;28;45293;-74
2023/01/06 07:34:50;;;;;;;;;0.50;0.50;;;;;12.48;77.93;101758.72;5015469;28;45210;-74
2023/01/06 07:37:16;;;;;;;;;0.00;0.00;;;;;12.38;78.10;101749.25;5015670;28;45373;-74
2023/01/06 07:39:41;;;;;;;;;1.00;1.00;;;;;12.40;78.52;101755.44;5015397;28;45412;-74
2023/01/06 07:42:08;;;;;;;;;2.00;1.00;;;;;12.34;78.38;101733.25;5015105;28;45344;-75
2023/01/06 07:44:33;;;;;;;;;1.75;1.75;;;;;12.49;78.33;101749.72;5006214;28;46581;-74
2023/01/06 07:46:58;;;;;;;;;0.50;0.50;;;;;12.39;78.03;101737.56;5014582;28;45384;-74
2023/01/06 07:49:24;;;;;;;;;0.25;0.25;;;;;12.45;78.30;101764.22;5015109;28;45295;-75
2023/01/06 07:51:49;;;;;;;;;1.75;1.75;;;;;12.50;78.39;101756.84;5015131;28;45492;-74
2023/01/06 07:54:15;;;;;;;;;3.00;1.50;;;;;12.45;78.15;101756.16;5010081;28;45464;-76
2023/01/06 07:56:40;;;;;;;;;1.00;1.00;;;;;12.39;78.60;101744.75;5015188;28;45898;-75
2023/01/06 07:59:05;;;;;;;;;0.50;0.50;;;;;12.45;78.34;101748.06;5018574;28;45475;-74
2023/01/06 08:01:31;;;;;;;;;1.75;1.00;;;;;12.52;78.15;101763.03;5015781;28;45314;-73
2023/01/06 08:03:56;;;;;;;;;1.50;1.50;;;;;12.34;77.78;101730.56;5014239;28;45416;-73
2023/01/06 08:06:21;;;;;;;;;1.00;1.00;;;;;12.41;78.02;101754.53;5012428;28;46034;-73
2023/01/06 08:08:47;;;;;;;;;1.00;1.00;;;;;12.50;78.13;101756.84;5014698;28;45202;-73
2023/01/06 08:11:12;;;;;;;;;0.50;0.50;;;;;12.30;77.92;101707.44;5011929;28;46081;-71
2023/01/06 08:13:38;;;;;;;;;1.75;1.75;;;;;12.49;77.62;101744.34;5012869;28;45499;-73
2023/01/06 08:16:04;;;;;;;;;1.25;0.75;;;;;12.46;77.88;101743.56;5020898;28;46078;-72
2023/01/06 08:18:30;;;;;;;;;0.00;0.00;;;;;12.49;78.08;101748.84;5017936;28;45390;-73
2023/01/06 08:21:08;;;;;;;;;1.50;1.50;;;;;12.45;78.31;101757.94;5014317;28;45377;-73
2023/01/06 08:23:34;;;;;;;;;1.00;1.00;;;;;12.46;78.30;101760.59;5012990;28;45343;-71
2023/01/06 08:26:02;;;;;;;;;1.00;1.00;;;;;12.47;78.03;101762.34;5014275;28;46346;-71
2023/01/06 08:28:28;;;;;;;;;1.00;1.00;;;;;12.41;77.92;101749.16;5016574;28;45678;-72
2023/01/06 08:30:54;;;;;;;;;1.00;1.00;;;;;12.39;78.20;101752.81;5015029;28;45337;-72
2023/01/06 08:33:19;;;;;;;;;1.00;1.00;;;;;12.47;78.66;101769.53;5013991;28;45391;-71
2023/01/06 08:35:46;;;;;;;;;1.00;1.00;;;;;12.50;78.02;101762.22;5014150;28;46357;-72
2023/01/06 08:38:12;;;;;;;;;2.00;2.00;;;;;12.60;78.25;101776.19;5014149;28;45552;-71
2023/01/06 08:40:38;;;;;;;;;1.00;1.00;;;;;12.57;77.51;101775.47;5014901;28;45394;-72
2023/01/06 08:43:03;;;;;;;;;3.00;2.00;;;;;12.58;77.82;101775.41;4996586;28;45354;-71
2023/01/06 08:45:29;;;;;;;;;1.75;1.75;;;;;12.63;77.68;101773.41;5022105;28;45373;-71
2023/01/06 08:47:54;;;;;;;;;2.00;1.00;;;;;12.60;77.48;101773.50;5015374;28;45431;-72
2023/01/06 08:50:20;;;;;;;;;1.25;1.25;;;;;12.60;77.81;101772.63;5014435;28;45498;-75
2023/01/06 08:52:45;;;;;;;;;2.00;2.00;;;;;12.61;77.65;101772.56;5013077;28;46234;-72
2023/01/06 08:55:11;;;;;;;;;1.50;1.50;;;;;12.53;77.95;101772.00;5014534;28;45472;-73
2023/01/06 08:57:36;;;;;;;;;1.25;1.25;;;;;12.49;77.66;101755.09;5013920;28;45349;-73
2023/01/06 09:00:04;;;;;;;;;2.75;1.00;;;;;12.48;77.92;101761.41;5015004;28;45285;-73
2023/01/06 09:02:30;;;;;;;;;1.75;1.75;;;;;12.57;78.22;101778.16;5011438;28;45524;-71
2023/01/06 09:04:56;;;;;;;;;1.50;1.50;;;;;12.60;78.08;101778.00;5013455;28;46034;-73
2023/01/06 09:07:21;;;;;;;;;1.00;1.00;;;;;12.55;78.25;101775.50;5013797;28;45317;-72
2023/01/06 09:09:47;;;;;;;;;1.00;1.00;;;;;12.61;77.99;101786.03;5016781;28;45744;-73
2023/01/06 09:12:12;;;;;;;;;1.00;1.00;;;;;12.55;78.03;101767.44;5017113;28;45554;-74
2023/01/06 09:14:37;;;;;;;;;1.00;1.00;;;;;12.68;78.20;101774.09;5017534;28;45958;-72
2023/01/06 09:17:03;;;;;;;;;2.00;2.00;;;;;12.68;78.22;101776.78;5017181;28;45352;-73
2023/01/06 09:19:28;;;;;;;;;1.00;1.00;;;;;12.58;78.28;101751.19;5019417;28;45469;-72
2023/01/06 09:21:53;;;;;;;;;2.00;2.00;;;;;12.66;78.45;101778.69;5019310;28;45581;-72
2023/01/06 09:24:19;;;;;;;;;4.00;4.00;;;;;12.59;78.48;101770.91;5017325;28;45368;-73
2023/01/06 09:26:44;;;;;;;;;6.00;6.00;;;;;12.69;78.52;101791.13;5017727;28;46188;-73
2023/01/06 09:29:09;;;;;;;;;4.00;4.00;;;;;12.70;78.22;101784.81;5018247;28;45416;-73
2023/01/06 09:31:35;;;;;;;;;2.00;2.00;;;;;12.65;78.70;101786.81;5017583;28;45871;-73
2023/01/06 09:34:00;;;;;;;;;2.25;2.25;;;;;12.72;78.37;101788.31;5017509;28;45470;-73
2023/01/06 09:36:26;;;;;;;;;5.00;2.50;;;;;12.68;78.02;101775.91;5017319;28;45395;-72
2023/01/06 09:38:51;;;;;;;;;2.00;2.00;;;;;12.77;77.82;101787.19;5017109;28;45814;-73
2023/01/06 09:41:45;;;;;;;;;1.75;1.25;;;;;12.75;78.01;101794.47;5016759;28;45401;-74
2023/01/06 09:44:29;;;;;;;;;2.25;2.25;;;;;12.82;77.64;101803.19;5022670;28;46374;-72
2023/01/06 09:46:57;;;;;;;;;4.00;2.00;;;;;12.82;77.53;101797.81;5016151;28;45388;-73
2023/01/06 09:49:25;;;;;;;;;2.00;2.00;;;;;12.85;77.49;101803.03;4998899;28;45392;-72
2023/01/06 09:52:01;;;;;;;;;2.00;2.00;;;;;12.87;77.69;101801.19;5017159;28;45587;-71
2023/01/06 09:54:40;;;;;;;;;2.00;2.00;;;;;12.88;77.42;101800.25;4998778;28;46111;-74
2023/01/06 09:57:12;;;;;;;;;2.00;2.00;;;;;12.93;77.42;101795.56;5016148;28;45486;-73
2023/01/06 09:59:53;;;;;;;;;5.25;3.00;;;;;12.94;77.39;101800.00;4998810;28;45329;-74
2023/01/06 10:02:25;;;;;;;;;2.00;2.00;;;;;12.89;77.34;101802.00;5016471;28;45194;-74
2023/01/06 10:04:51;;;;;;;;;5.00;4.00;;;;;12.86;77.56;101796.72;5016082;28;45437;-72
2023/01/06 10:07:40;;;;;;;;;2.00;2.00;;;;;12.92;77.53;101796.53;5016433;28;45355;-76
2023/01/06 10:10:13;;;;;;;;;4.25;2.00;;;;;13.03;77.35;101807.72;5016816;28;45284;-70
2023/01/06 10:12:49;;;;;;;;;2.25;2.25;;;;;12.98;76.78;101809.72;5016211;28;45201;-72
2023/01/06 10:15:34;;;;;;;;;3.50;2.00;;;;;13.04;77.18;101816.69;5016218;28;45375;-73
2023/01/06 10:18:08;;;;;;;;;2.00;2.00;;;;;13.01;77.15;101816.81;5016328;28;45349;-71
2023/01/06 10:20:53;;;;;;;;;3.75;1.50;;;;;13.01;77.21;101806.06;5020280;28;45458;-72
2023/01/06 10:23:55;;;;;;;;;3.50;2.75;;;;;13.09;77.00;101817.41;5015746;28;45372;-73
2023/01/06 10:26:29;;;;;;;;;4.00;2.50;;;;;13.02;76.88;101811.34;5013798;28;46259;-74
2023/01/06 10:29:03;;;;;;;;;2.75;2.75;;;;;13.11;76.80;101820.88;5023338;28;45375;-72
2023/01/06 10:31:33;;;;;;;;;3.50;3.25;;;;;13.15;76.75;101819.88;5015061;28;45495;-73
2023/01/06 10:34:01;;;;;;;;;5.50;2.50;;;;;13.10;76.65;101809.22;5016316;28;45400;-72
2023/01/06 10:36:41;;;;;;;;;3.25;3.00;;;;;13.17;76.79;101818.00;5014864;28;46398;-74
2023/01/06 10:39:15;;;;;;;;;2.75;1.00;;;;;13.17;76.54;101812.63;4997782;28;45475;-72
2023/01/06 10:45:02;;;;;;;;;3.50;2.75;;;;;13.12;76.64;101810.06;5015441;28;45532;-72
2023/01/06 10:47:30;;;;;;;;;3.00;3.00;;;;;13.11;76.79;101796.66;5015231;28;46236;-73
2023/01/06 10:49:57;;;;;;;;;3.25;3.25;;;;;13.13;76.77;101817.22;5015957;28;45361;-72
2023/01/06 10:52:24;;;;;;;;;2.00;2.00;;;;;13.12;76.83;101801.09;5014790;28;45433;-75
2023/01/06 10:54:53;;;;;;;;;3.75;3.00;;;;;13.16;76.77;101794.69;5015836;28;45400;-74
2023/01/06 10:57:25;;;;;;;;;3.00;2.00;;;;;13.18;76.29;101799.06;5016491;28;46227;-76
2023/01/06 11:00:09;;;;;;;;;2.75;2.75;;;;;13.17;76.92;101791.97;5015622;28;45482;-72
2023/01/06 11:02:34;;;;;;;;;4.00;2.75;;;;;13.23;76.31;101785.44;5015390;28;45486;-72
2023/01/06 11:05:01;;;;;;;;;3.00;3.00;;;;;13.30;75.87;101794.13;5015265;28;45294;-71
2023/01/06 11:07:27;;;;;;;;;2.00;2.00;;;;;13.33;75.98;101797.59;5014914;28;45753;-72
2023/01/06 11:09:54;;;;;;;;;2.00;2.00;;;;;13.30;76.62;101778.84;5015511;28;45344;-74
2023/01/06 11:12:22;;;;;;;;;3.00;3.00;;;;;13.38;75.91;101784.81;4998766;28;46458;-75
2023/01/06 11:15:00;;;;;;;;;3.00;3.00;;;;;13.40;75.74;101774.84;5015572;28;45330;-73
2023/01/06 11:17:27;;;;;;;;;3.00;2.00;;;;;13.50;75.57;101778.03;5014453;28;46236;-72
2023/01/06 11:20:11;;;;;;;;;4.00;3.00;;;;;13.53;75.66;101780.59;5014546;28;45427;-75
2023/01/06 11:22:39;;;;;;;;;3.75;3.00;;;;;13.64;75.64;101771.13;5015393;28;45465;-72
2023/01/06 11:25:16;;;;;;;;;3.00;3.00;;;;;13.74;75.02;101770.75;5014967;28;45499;-71
2023/01/06 11:27:42;;;;;;;;;3.50;3.00;;;;;13.69;75.04;101759.28;4995499;28;48220;-75
2023/01/06 11:30:21;;;;;;;;;3.00;3.00;;;;;13.64;74.78;101751.38;5015089;28;45368;-76
2023/01/06 11:32:46;;;;;;;;;3.00;3.00;;;;;13.71;75.06;101763.66;5014805;28;45229;-75
2023/01/06 11:35:19;;;;;;;;;2.75;2.75;;;;;13.69;74.49;101751.22;5014088;28;46035;-76
2023/01/06 11:37:45;;;;;;;;;4.00;4.00;;;;;13.68;74.50;101761.13;5015684;28;46349;-76
2023/01/06 11:40:20;;;;;;;;;5.25;2.50;;;;;13.62;74.77;101737.09;4996851;28;46050;-72
2023/01/06 11:42:53;;;;;;;;;3.00;3.00;;;;;13.67;75.03;101759.34;5015432;28;45230;-74
2023/01/06 11:45:35;;;;;;;;;2.25;2.25;;;;;13.76;74.97;101758.97;5015160;28;45263;-79
2023/01/06 11:48:04;;;;;;;;;5.00;2.00;;;;;13.82;74.33;101734.44;5014766;28;46116;-76
2023/01/06 11:50:30;;;;;;;;;2.00;2.00;;;;;13.87;74.18;101732.41;5014316;28;45280;-74
2023/01/06 11:53:02;;;;;;;;;4.00;3.25;;;;;13.91;73.37;101708.91;5013445;28;45372;-74
2023/01/06 11:55:29;;;;;;;;;3.00;3.00;;;;;14.20;72.44;101719.25;5015015;28;45646;-75
2023/01/06 11:58:12;;;;;;;;;3.75;3.75;;;;;14.28;72.71;101721.59;5014663;28;47010;-72
2023/01/06 12:00:46;;;;;;;;;3.00;3.00;;;;;14.46;72.96;101722.63;5015276;28;45460;-74
2023/01/06 12:03:33;;;;;;;;;5.00;5.00;;;;;14.51;71.98;101698.97;5014856;28;45971;-73
2023/01/06 12:06:15;;;;;;;;;3.50;2.75;;;;;14.60;70.58;101714.75;4995747;28;46555;-79
2023/01/06 12:09:01;;;;;;;;;2.75;2.75;;;;;14.58;71.09;101716.63;4995821;28;48730;-73
2023/01/06 12:11:38;;;;;;;;;2.75;2.00;;;;;14.49;71.23;101715.25;5014542;28;45369;-72
2023/01/06 12:14:03;;;;;;;;;3.00;3.00;;;;;14.39;71.19;101708.50;5013126;28;45602;-72
2023/01/06 12:16:37;;;;;;;;;3.50;3.50;;;;;14.35;71.79;101709.59;5014256;28;45172;-74
2023/01/06 12:19:39;;;;;;;;;3.00;2.50;;;;;14.21;71.85;101706.63;5014395;28;45419;-74
2023/01/06 12:22:11;;;;;;;;;3.00;3.00;;;;;14.19;71.96;101690.53;4996919;28;45358;-74
2023/01/06 12:24:37;;;;;;;;;3.00;3.00;;;;;14.05;72.23;101682.19;5015097;28;45379;-72
2023/01/06 12:27:04;;;;;;;;;1.50;1.50;;;;;13.93;72.13;101678.25;5013634;28;45440;-72
2023/01/06 12:29:32;;;;;;;;;4.00;3.00;;;;;13.87;72.81;101683.00;5014169;28;46262;-73
2023/01/06 12:32:17;;;;;;;;;3.50;2.00;;;;;13.96;73.08;101677.19;5014088;28;45341;-74
2023/01/06 12:34:47;;;;;;;;;4.00;4.00;;;;;13.93;72.97;101670.16;5014096;28;45380;-72
2023/01/06 12:37:25;;;;;;;;;3.75;3.75;;;;;13.87;72.86;101667.69;5013961;28;45506;-73
2023/01/06 12:40:28;;;;;;;;;3.50;3.00;;;;;13.95;72.73;101676.31;5013857;28;45546;-73
2023/01/06 12:42:56;;;;;;;;;3.75;2.75;;;;;13.85;72.87;101675.00;4976770;28;45431;-73
2023/01/06 12:45:40;;;;;;;;;5.00;4.00;;;;;13.92;72.69;101665.69;5014391;28;45381;-72
2023/01/06 12:48:17;;;;;;;;;3.00;3.00;;;;;13.87;72.67;101653.34;5013364;28;45663;-72
2023/01/06 12:50:52;;;;;;;;;3.25;3.00;;;;;13.89;72.74;101664.94;5012831;28;45533;-72
2023/01/06 12:53:18;;;;;;;;;5.50;3.50;;;;;13.85;72.73;101649.88;5013988;28;45369;-72
2023/01/06 12:55:50;;;;;;;;;3.00;3.00;;;;;13.83;72.74;101658.03;5016243;28;45450;-73
2023/01/06 12:58:27;;;;;;;;;4.00;4.00;;;;;13.89;72.83;101651.47;5019243;28;45526;-72
2023/01/06 13:01:17;;;;;;;;;2.75;2.75;;;;;14.01;71.98;101648.22;5011394;28;46100;-72
2023/01/06 13:03:58;;;;;;;;;3.00;3.00;;;;;13.93;71.82;101640.50;5014480;28;45589;-77
2023/01/06 13:06:36;;;;;;;;;4.75;4.00;;;;;13.94;72.37;101644.06;5004267;28;45285;-74
2023/01/06 13:09:29;;;;;;;;;3.50;3.00;;;;;13.92;71.94;101654.03;4997005;28;45920;-73
2023/01/06 13:12:22;;;;;;;;;2.00;2.00;;;;;13.81;72.50;101638.34;5010891;28;46233;-72
2023/01/06 13:14:57;;;;;;;;;5.00;2.00;;;;;13.85;72.84;101639.09;4995863;28;45290;-72
2023/01/06 13:17:31;;;;;;;;;3.00;3.00;;;;;13.88;72.82;101642.50;5012130;28;45420;-74
2023/01/06 13:20:01;;;;;;;;;2.50;2.00;;;;;13.92;72.67;101640.56;5013372;28;45432;-72
2023/01/06 13:22:46;;;;;;;;;4.00;3.25;;;;;13.91;72.46;101639.69;5011963;28;48797;-74
2023/01/06 13:25:27;;;;;;;;;1.25;1.25;;;;;13.94;72.46;101636.84;5013023;28;45460;-73
2023/01/06 13:28:20;;;;;;;;;3.50;3.50;;;;;13.87;72.33;101634.47;5016132;28;45387;-74
2023/01/06 13:31:13;;;;;;;;;5.00;4.00;;;;;13.80;72.81;101636.59;5005947;28;45592;-73
2023/01/06 13:34:23;;;;;;;;;2.00;2.00;;;;;13.76;73.03;101628.72;5012206;28;45481;-73
2023/01/06 13:37:22;;;;;;;;;2.00;2.00;;;;;13.91;72.74;101641.50;4991657;28;45274;-73
2023/01/06 13:39:56;;;;;;;;;4.50;4.00;;;;;14.09;72.45;101642.47;5010202;28;45483;-73
2023/01/06 13:42:32;;;;;;;;;2.25;2.25;;;;;14.18;72.14;101642.94;5010953;28;45550;-72
2023/01/06 13:44:58;;;;;;;;;3.50;3.00;;;;;14.18;71.27;101637.53;5012555;28;45511;-73
2023/01/06 13:47:24;;;;;;;;;3.00;3.00;;;;;14.29;71.26;101637.06;5012875;28;45499;-72
2023/01/06 13:49:50;;;;;;;;;4.00;2.50;;;;;14.45;71.37;101635.41;5012707;28;45381;-71
2023/01/06 13:52:21;;;;;;;;;3.00;3.00;;;;;14.49;70.18;101631.59;5013265;28;45424;-71
2023/01/06 13:54:46;;;;;;;;;2.50;2.00;;;;;14.57;69.95;101626.69;5013859;28;46202;-72
2023/01/06 13:57:21;;;;;;;;;2.50;2.50;;;;;14.54;69.44;101623.28;5016337;28;45435;-72
2023/01/06 13:59:50;;;;;;;;;3.00;3.00;;;;;14.45;69.82;101612.94;5013293;28;45534;-71
2023/01/06 14:02:58;;;;;;;;;2.00;2.00;;;;;14.61;69.55;101622.03;5015894;28;45519;-71
2023/01/06 14:05:23;;;;;;;;;5.00;3.75;;;;;14.64;68.91;101614.66;5014791;28;45481;-73
2023/01/06 14:08:00;;;;;;;;;3.00;3.00;;;;;14.67;68.92;101617.22;5016464;28;45253;-72
2023/01/06 14:10:37;;;;;;;;;2.00;2.00;;;;;14.64;68.91;101608.38;5016107;28;45534;-72
2023/01/06 14:13:16;;;;;;;;;2.25;2.00;;;;;14.64;68.96;101611.06;5014859;28;47236;-72
2023/01/06 14:16:01;;;;;;;;;3.50;1.50;;;;;14.69;68.59;101625.25;5016170;28;45450;-72
2023/01/06 14:18:35;;;;;;;;;1.25;1.25;;;;;14.60;68.53;101615.78;5016153;28;45523;-70
2023/01/06 14:21:14;;;;;;;;;2.00;2.00;;;;;14.60;68.73;101604.97;5015624;28;45340;-72
2023/01/06 14:24:02;;;;;;;;;4.75;2.00;;;;;14.68;69.11;101613.56;5015879;28;45352;-71
2023/01/06 14:26:48;;;;;;;;;2.75;2.75;;;;;14.99;68.89;101618.31;5016004;28;45349;-71
2023/01/06 14:29:41;;;;;;;;;2.00;2.00;;;;;15.25;67.21;101606.19;5015856;28;45341;-71
2023/01/06 14:32:09;;;;;;;;;1.00;1.00;;;;;15.58;66.60;101616.22;5016219;28;45447;-71
2023/01/06 14:34:37;;;;;;;;;3.00;1.00;;;;;15.67;64.52;101618.44;5015713;28;45311;-73
2023/01/06 14:37:10;;;;;;;;;2.25;2.00;;;;;15.48;65.10;101610.41;5016133;28;45426;-70
2023/01/06 14:39:41;;;;;;;;;1.00;1.00;;;;;15.61;64.91;101621.47;5015908;28;45527;-72
2023/01/06 14:42:21;;;;;;;;;2.25;2.00;;;;;15.78;64.55;101616.03;5015942;28;45266;-72
2023/01/06 14:44:54;;;;;;;;;0.00;0.00;;;;;15.70;64.06;101604.75;5008475;28;45385;-71
2023/01/06 14:47:44;;;;;;;;;1.50;1.50;;;;;15.68;64.26;101606.66;5015710;28;45419;-71
2023/01/06 14:50:29;;;;;;;;;1.00;1.00;;;;;15.72;64.00;101611.84;5015738;28;45322;-73
2023/01/06 14:53:02;;;;;;;;;2.50;0.50;;;;;15.67;64.52;101604.91;5013615;28;45448;-72
2023/01/06 14:55:32;;;;;;;;;2.75;2.00;;;;;15.61;64.60;101597.13;5014982;28;45461;-72
2023/01/06 14:57:57;;;;;;;;;2.75;2.00;;;;;15.38;64.53;101611.84;5015726;28;46797;-71
2023/01/06 15:00:28;;;;;;;;;2.00;1.00;;;;;15.35;65.20;101607.44;5002924;28;45413;-71
2023/01/06 15:03:17;;;;;;;;;1.75;1.75;;;;;15.40;65.02;101604.50;5002978;28;45349;-73
2023/01/06 15:05:43;;;;;;;;;1.00;1.00;;;;;15.41;64.39;101599.03;5014205;28;46046;-72
2023/01/06 15:08:08;;;;;;;;;1.00;1.00;;;;;15.30;64.26;101616.75;5014294;28;46355;-71
2023/01/06 15:10:37;;;;;;;;;1.00;1.00;;;;;15.09;65.14;101586.31;5015449;28;45401;-72
2023/01/06 15:13:18;;;;;;;;;3.75;1.00;;;;;15.18;64.93;101620.09;5008167;28;45527;-71
2023/01/06 15:15:45;;;;;;;;;4.00;1.50;;;;;15.10;65.05;101615.94;5013709;28;46372;-73
2023/01/06 15:18:12;;;;;;;;;2.00;2.00;;;;;15.14;65.36;101608.56;5015260;28;46417;-72
2023/01/06 15:20:42;;;;;;;;;1.50;1.50;;;;;15.15;65.50;101605.78;5014951;28;45335;-72
2023/01/06 15:23:19;;;;;;;;;2.00;2.00;;;;;15.01;65.67;101599.34;5014858;28;45364;-73
2023/01/06 15:25:48;;;;;;;;;2.00;2.00;;;;;14.94;65.50;101597.91;5016143;28;45496;-72
2023/01/06 15:28:33;;;;;;;;;1.25;1.25;;;;;14.89;66.13;101589.13;5015612;28;46284;-73
2023/01/06 15:31:00;;;;;;;;;1.25;1.25;;;;;14.95;66.10;101602.34;5014004;28;45391;-73
2023/01/06 15:33:39;;;;;;;;;2.00;2.00;;;;;14.86;66.06;101610.91;5013890;28;45576;-73
2023/01/06 15:36:05;;;;;;;;;4.00;2.00;;;;;14.81;66.59;101605.72;5014748;28;45511;-72
2023/01/06 15:38:38;;;;;;;;;2.50;2.00;;;;;14.80;66.56;101598.56;5015193;28;45395;-73
2023/01/06 15:41:31;;;;;;;;;2.75;2.75;;;;;14.75;66.68;101596.13;5014896;28;45482;-70
2023/01/06 15:43:50;;;;;;;;;14.00;14.00;;;;;14.69;66.83;101603.66;5014541;28;45545;-72
2023/01/06 15:46:16;;;;;;;;;25.50;20.50;;;;;14.69;66.99;101600.94;5014543;28;45340;-72
2023/01/06 15:48:47;;;;;;;;;52.75;42.00;;;;;14.63;66.98;101602.09;5014839;28;46276;-71
2023/01/06 15:51:16;;;;;;;;;39.00;33.25;;;;;14.54;67.23;101588.22;5014187;28;45295;-71
2023/01/06 15:53:43;;;;;;;;;43.00;36.25;;;;;14.51;67.79;101597.31;5015181;28;45358;-73
2023/01/06 15:56:22;;;;;;;;;52.25;38.75;;;;;14.50;67.78;101592.88;5014653;28;45527;-74
2023/01/06 15:58:50;;;;;;;;;51.50;40.00;;;;;14.50;68.04;101597.41;5024710;28;46238;-76
2023/01/06 16:01:20;;;;;;;;;43.50;33.75;;;;;14.45;68.26;101604.84;5014294;28;45439;-75
2023/01/06 16:03:50;;;;;;;;;55.75;39.00;;;;;14.33;68.58;101599.06;5014806;28;46508;-74
2023/01/06 16:06:30;;;;;;;;;54.25;37.00;;;;;14.31;69.00;101591.97;5014521;28;45634;-74
2023/01/06 16:09:17;;;;;;;;;50.00;38.25;;;;;14.36;68.84;101600.75;5014346;28;45439;-77
2023/01/06 16:12:02;;;;;;;;;43.00;38.25;;;;;14.33;68.84;101590.97;5011083;28;45450;-74
2023/01/06 16:14:31;;;;;;;;;49.75;38.50;;;;;14.27;69.17;101601.16;5021378;28;45604;-75
2023/01/06 16:17:13;;;;;;;;;33.75;31.25;;;;;14.23;69.59;101592.34;5012661;28;45387;-74
2023/01/06 16:20:03;;;;;;;;;34.75;33.25;;;;;14.18;69.69;101585.44;5013031;28;46682;-74
2023/01/06 16:22:33;;;;;;;;;35.50;28.25;;;;;14.24;69.56;101587.81;5014164;28;45643;-75
2023/01/06 16:25:21;;;;;;;;;27.50;26.25;;;;;14.21;69.63;101593.34;5011877;28;45653;-75
2023/01/06 16:27:48;;;;;;;;;12.75;11.75;;;;;14.18;69.85;101598.91;4995789;28;45606;-72
2023/01/06 16:30:13;;;;;;;;;31.75;28.25;;;;;14.17;70.16;101583.66;5014366;28;46597;-74
2023/01/06 16:32:41;;;;;;;;;23.50;21.75;;;;;14.17;70.28;101586.38;5013157;28;45237;-73
2023/01/06 16:35:23;;;;;;;;;14.50;13.25;;;;;14.14;70.01;101581.09;5013647;28;45470;-74
2023/01/06 16:37:49;;;;;;;;;8.50;7.75;;;;;14.05;70.30;101579.72;5014289;28;45372;-74
2023/01/06 16:40:16;;;;;;;;;6.75;5.00;;;;;14.07;70.18;101575.13;5014216;28;45221;-73
2023/01/06 16:42:42;;;;;;;;;2.75;2.75;;;;;13.98;70.95;101575.56;5013698;28;45222;-74
2023/01/06 16:45:23;;;;;;;;;1.00;1.00;;;;;13.94;70.85;101580.25;5014110;28;45444;-74
2023/01/06 16:47:49;;;;;;;;;3.75;3.75;;;;;13.96;70.85;101580.16;5014046;28;45337;-76
2023/01/06 16:50:17;;;;;;;;;5.50;2.25;;;;;13.94;70.91;101574.84;5014584;28;46173;-73
2023/01/06 16:52:45;;;;;;;;;4.00;3.00;;;;;13.77;71.30;101539.72;5015757;28;45523;-74
2023/01/06 16:55:13;;;;;;;;;5.25;3.25;;;;;13.80;71.21;101558.44;5015575;28;45289;-74
2023/01/06 16:57:38;;;;;;;;;3.00;3.00;;;;;13.80;71.33;101571.91;5014081;28;45588;-73
2023/01/06 17:00:04;;;;;;;;;4.00;3.00;;;;;13.74;71.55;101557.84;5012655;28;46310;-75
2023/01/06 17:02:31;;;;;;;;;2.00;2.00;;;;;13.77;71.16;101566.69;5009871;28;45426;-74
2023/01/06 17:04:56;;;;;;;;;3.00;3.00;;;;;13.68;71.41;101561.69;5013285;28;45399;-73
2023/01/06 17:07:21;;;;;;;;;5.00;3.50;;;;;13.71;71.31;101552.59;5013397;28;45547;-72
2023/01/06 17:09:49;;;;;;;;;3.00;3.00;;;;;13.75;71.28;101549.69;5013451;28;45397;-76
2023/01/06 17:13:33;;;;;;;;;4.25;3.25;;;;;13.78;71.28;101557.63;5012938;28;45448;-73
2023/01/06 17:15:00;;;;;;;;;2.00;2.00;;;;;13.75;71.32;101551.50;5013340;28;45404;-73
2023/01/06 17:17:26;;;;;;;;;2.00;2.00;;;;;13.75;71.33;101551.50;5013792;28;45551;-73